Leal, North Dakota
Current Conditions -  °F | °C
As of 3:35 PM on Saturday 25 Oct 2014 (Local Time) from KBAC Reporting Station
Clear Clear  
Wind Chill: 59°   Ceiling: Unl
Heat Index: 59°   Visibility: 10mi
Dew Point: 27°   Wind: 13mph
Humidity: 29%   Direction: 320°NW
Pressure: 30.09"   Gusts: NA
Location:  47.0662°N, 98.2132°W
Report Text: KBAC 252035Z AUTO 32011KT 10SM CLR 15/M03 A3009 RMK AO2
Loading
Personal Weather Stations






























Interactive Weather Map
Tropical Storm Tracking
New forecast layout! Learn more

10-Day Weather Forecast

Advertisements
Track Severe Weather on mobile